sensor_id;sensor_type;location;lat;lon;timestamp;P1;durP1;ratioP1;P2;durP2;ratioP2
1360;SDS011;674;45.552;-122.600;2022-07-21T00:00:21;2.70;;;2.00;;
1360;SDS011;674;45.552;-122.600;2022-07-21T00:02:52;2.97;;;2.00;;
1360;SDS011;674;45.552;-122.600;2022-07-21T00:05:22;2.53;;;1.90;;
1360;SDS011;674;45.552;-122.600;2022-07-21T00:07:52;2.27;;;1.80;;
1360;SDS011;674;45.552;-122.600;2022-07-21T00:10:22;3.90;;;2.40;;
1360;SDS011;674;45.552;-122.600;2022-07-21T00:12:52;3.57;;;1.73;;
1360;SDS011;674;45.552;-122.600;2022-07-21T00:15:22;6.07;;;4.17;;
1360;SDS011;674;45.552;-122.600;2022-07-21T00:17:52;2.73;;;2.10;;
1360;SDS011;674;45.552;-122.600;2022-07-21T00:20:21;2.23;;;1.80;;
1360;SDS011;674;45.552;-122.600;2022-07-21T00:22:50;2.70;;;2.00;;
1360;SDS011;674;45.552;-122.600;2022-07-21T00:25:18;2.70;;;2.00;;
1360;SDS011;674;45.552;-122.600;2022-07-21T00:27:47;5.10;;;1.70;;
1360;SDS011;674;45.552;-122.600;2022-07-21T00:30:16;4.00;;;2.17;;
1360;SDS011;674;45.552;-122.600;2022-07-21T00:32:44;2.33;;;1.90;;
1360;SDS011;674;45.552;-122.600;2022-07-21T00:35:13;2.10;;;1.90;;
1360;SDS011;674;45.552;-122.600;2022-07-21T00:37:43;2.63;;;2.10;;
1360;SDS011;674;45.552;-122.600;2022-07-21T00:40:12;2.57;;;2.20;;
1360;SDS011;674;45.552;-122.600;2022-07-21T00:42:41;2.83;;;2.00;;
1360;SDS011;674;45.552;-122.600;2022-07-21T00:45:10;2.47;;;1.80;;
1360;SDS011;674;45.552;-122.600;2022-07-21T00:47:39;3.10;;;2.27;;
1360;SDS011;674;45.552;-122.600;2022-07-21T00:50:10;1.90;;;1.70;;
1360;SDS011;674;45.552;-122.600;2022-07-21T00:52:41;3.20;;;2.13;;
1360;SDS011;674;45.552;-122.600;2022-07-21T00:55:12;2.70;;;1.90;;
1360;SDS011;674;45.552;-122.600;2022-07-21T00:57:42;4.70;;;1.93;;
1360;SDS011;674;45.552;-122.600;2022-07-21T01:00:13;3.90;;;1.73;;
1360;SDS011;674;45.552;-122.600;2022-07-21T01:02:54;3.57;;;3.17;;
1360;SDS011;674;45.552;-122.600;2022-07-21T01:05:24;1.90;;;1.70;;
1360;SDS011;674;45.552;-122.600;2022-07-21T01:07:54;13.30;;;11.23;;
1360;SDS011;674;45.552;-122.600;2022-07-21T01:10:23;2.43;;;1.70;;
1360;SDS011;674;45.552;-122.600;2022-07-21T01:12:52;3.43;;;1.53;;
1360;SDS011;674;45.552;-122.600;2022-07-21T01:15:21;2.57;;;1.87;;
1360;SDS011;674;45.552;-122.600;2022-07-21T01:17:51;3.23;;;1.40;;
1360;SDS011;674;45.552;-122.600;2022-07-21T01:20:21;3.97;;;1.40;;
1360;SDS011;674;45.552;-122.600;2022-07-21T01:22:52;2.17;;;1.23;;
1360;SDS011;674;45.552;-122.600;2022-07-21T01:25:23;2.63;;;1.27;;
1360;SDS011;674;45.552;-122.600;2022-07-21T01:27:51;3.33;;;1.70;;
1360;SDS011;674;45.552;-122.600;2022-07-21T01:30:20;1.97;;;1.30;;
1360;SDS011;674;45.552;-122.600;2022-07-21T01:32:48;6.97;;;4.60;;
1360;SDS011;674;45.552;-122.600;2022-07-21T01:35:17;1.83;;;1.20;;
1360;SDS011;674;45.552;-122.600;2022-07-21T01:37:46;1.67;;;1.10;;
1360;SDS011;674;45.552;-122.600;2022-07-21T01:40:16;3.30;;;1.67;;
1360;SDS011;674;45.552;-122.600;2022-07-21T01:43:03;2.07;;;0.93;;
1360;SDS011;674;45.552;-122.600;2022-07-21T01:45:38;7.37;;;1.23;;
1360;SDS011;674;45.552;-122.600;2022-07-21T01:48:08;1.53;;;0.90;;
1360;SDS011;674;45.552;-122.600;2022-07-21T01:50:37;1.37;;;0.90;;
1360;SDS011;674;45.552;-122.600;2022-07-21T01:53:06;3.97;;;1.27;;
1360;SDS011;674;45.552;-122.600;2022-07-21T01:55:34;2.33;;;0.80;;
1360;SDS011;674;45.552;-122.600;2022-07-21T01:58:03;3.57;;;3.20;;
1360;SDS011;674;45.552;-122.600;2022-07-21T02:00:31;2.13;;;1.07;;
1360;SDS011;674;45.552;-122.600;2022-07-21T02:03:00;1.60;;;0.90;;
1360;SDS011;674;45.552;-122.600;2022-07-21T02:05:28;3.40;;;1.13;;
1360;SDS011;674;45.552;-122.600;2022-07-21T02:07:56;1.60;;;0.90;;
1360;SDS011;674;45.552;-122.600;2022-07-21T02:10:25;3.93;;;1.23;;
1360;SDS011;674;45.552;-122.600;2022-07-21T02:12:53;2.37;;;1.10;;
1360;SDS011;674;45.552;-122.600;2022-07-21T02:15:22;2.90;;;1.03;;
1360;SDS011;674;45.552;-122.600;2022-07-21T02:17:50;2.50;;;1.10;;
1360;SDS011;674;45.552;-122.600;2022-07-21T02:20:19;3.83;;;1.10;;
1360;SDS011;674;45.552;-122.600;2022-07-21T02:22:47;2.23;;;0.90;;
1360;SDS011;674;45.552;-122.600;2022-07-21T02:25:16;2.67;;;1.10;;
1360;SDS011;674;45.552;-122.600;2022-07-21T02:27:45;3.33;;;1.10;;
1360;SDS011;674;45.552;-122.600;2022-07-21T02:30:14;4.53;;;1.13;;
1360;SDS011;674;45.552;-122.600;2022-07-21T02:32:43;2.93;;;1.30;;
1360;SDS011;674;45.552;-122.600;2022-07-21T02:35:11;2.23;;;1.47;;
1360;SDS011;674;45.552;-122.600;2022-07-21T02:37:40;3.40;;;1.47;;
1360;SDS011;674;45.552;-122.600;2022-07-21T02:40:08;2.20;;;1.40;;
1360;SDS011;674;45.552;-122.600;2022-07-21T02:42:37;7.17;;;1.83;;
1360;SDS011;674;45.552;-122.600;2022-07-21T02:45:07;9.20;;;4.93;;
1360;SDS011;674;45.552;-122.600;2022-07-21T02:50:28;1.50;;;1.10;;
1360;SDS011;674;45.552;-122.600;2022-07-21T02:53:03;2.03;;;1.40;;
1360;SDS011;674;45.552;-122.600;2022-07-21T02:55:34;2.40;;;1.60;;
1360;SDS011;674;45.552;-122.600;2022-07-21T02:58:07;2.93;;;1.53;;
1360;SDS011;674;45.552;-122.600;2022-07-21T03:00:45;4.17;;;3.17;;
1360;SDS011;674;45.552;-122.600;2022-07-21T03:03:17;3.43;;;3.23;;
1360;SDS011;674;45.552;-122.600;2022-07-21T03:05:46;3.77;;;1.60;;
1360;SDS011;674;45.552;-122.600;2022-07-21T03:08:15;2.53;;;1.40;;
1360;SDS011;674;45.552;-122.600;2022-07-21T03:10:44;5.03;;;1.63;;
1360;SDS011;674;45.552;-122.600;2022-07-21T03:13:12;2.20;;;1.53;;
1360;SDS011;674;45.552;-122.600;2022-07-21T03:15:41;4.53;;;1.60;;
1360;SDS011;674;45.552;-122.600;2022-07-21T03:18:10;2.23;;;1.30;;
1360;SDS011;674;45.552;-122.600;2022-07-21T03:20:39;3.90;;;1.40;;
1360;SDS011;674;45.552;-122.600;2022-07-21T03:23:08;1.80;;;1.50;;
1360;SDS011;674;45.552;-122.600;2022-07-21T03:25:36;2.07;;;1.53;;
1360;SDS011;674;45.552;-122.600;2022-07-21T03:28:05;1.90;;;1.50;;
1360;SDS011;674;45.552;-122.600;2022-07-21T03:30:34;4.03;;;1.80;;
1360;SDS011;674;45.552;-122.600;2022-07-21T03:33:03;2.30;;;1.40;;
1360;SDS011;674;45.552;-122.600;2022-07-21T03:35:32;2.40;;;1.60;;
1360;SDS011;674;45.552;-122.600;2022-07-21T03:38:02;3.13;;;1.53;;
1360;SDS011;674;45.552;-122.600;2022-07-21T03:40:32;3.13;;;1.30;;
1360;SDS011;674;45.552;-122.600;2022-07-21T03:43:03;2.50;;;1.30;;
1360;SDS011;674;45.552;-122.600;2022-07-21T03:45:34;2.10;;;1.30;;
1360;SDS011;674;45.552;-122.600;2022-07-21T03:48:04;2.73;;;1.60;;
1360;SDS011;674;45.552;-122.600;2022-07-21T03:50:35;1.53;;;1.33;;
1360;SDS011;674;45.552;-122.600;2022-07-21T03:53:07;3.40;;;1.50;;
1360;SDS011;674;45.552;-122.600;2022-07-21T03:55:36;3.37;;;2.00;;
1360;SDS011;674;45.552;-122.600;2022-07-21T03:58:05;1.60;;;1.20;;
1360;SDS011;674;45.552;-122.600;2022-07-21T04:00:36;2.50;;;1.10;;
1360;SDS011;674;45.552;-122.600;2022-07-21T04:03:09;2.60;;;1.57;;
1360;SDS011;674;45.552;-122.600;2022-07-21T04:05:39;1.60;;;1.30;;
1360;SDS011;674;45.552;-122.600;2022-07-21T04:08:08;2.20;;;1.40;;
1360;SDS011;674;45.552;-122.600;2022-07-21T04:10:38;2.83;;;1.83;;
1360;SDS011;674;45.552;-122.600;2022-07-21T04:13:10;2.90;;;1.80;;
1360;SDS011;674;45.552;-122.600;2022-07-21T04:15:40;1.97;;;1.60;;
1360;SDS011;674;45.552;-122.600;2022-07-21T04:18:09;2.37;;;1.57;;
1360;SDS011;674;45.552;-122.600;2022-07-21T04:20:38;2.80;;;1.90;;
1360;SDS011;674;45.552;-122.600;2022-07-21T04:23:06;2.00;;;1.30;;
1360;SDS011;674;45.552;-122.600;2022-07-21T04:25:35;4.10;;;1.70;;
1360;SDS011;674;45.552;-122.600;2022-07-21T04:28:05;3.03;;;1.50;;
1360;SDS011;674;45.552;-122.600;2022-07-21T04:30:34;1.70;;;1.40;;
1360;SDS011;674;45.552;-122.600;2022-07-21T04:33:03;3.17;;;1.50;;
1360;SDS011;674;45.552;-122.600;2022-07-21T04:35:33;2.70;;;1.90;;
1360;SDS011;674;45.552;-122.600;2022-07-21T04:38:02;3.00;;;1.93;;
1360;SDS011;674;45.552;-122.600;2022-07-21T04:40:31;3.03;;;1.70;;
1360;SDS011;674;45.552;-122.600;2022-07-21T04:42:59;2.10;;;1.50;;
1360;SDS011;674;45.552;-122.600;2022-07-21T04:45:28;3.93;;;1.50;;
1360;SDS011;674;45.552;-122.600;2022-07-21T04:47:57;3.20;;;1.83;;
1360;SDS011;674;45.552;-122.600;2022-07-21T04:50:26;2.90;;;1.57;;
1360;SDS011;674;45.552;-122.600;2022-07-21T04:52:55;2.33;;;1.67;;
1360;SDS011;674;45.552;-122.600;2022-07-21T04:55:24;3.30;;;1.50;;
1360;SDS011;674;45.552;-122.600;2022-07-21T04:57:53;3.07;;;1.57;;
1360;SDS011;674;45.552;-122.600;2022-07-21T05:00:23;2.70;;;1.40;;
1360;SDS011;674;45.552;-122.600;2022-07-21T05:02:53;2.43;;;1.40;;
1360;SDS011;674;45.552;-122.600;2022-07-21T05:05:21;2.20;;;1.60;;
1360;SDS011;674;45.552;-122.600;2022-07-21T05:07:50;4.97;;;1.63;;
1360;SDS011;674;45.552;-122.600;2022-07-21T05:10:19;3.33;;;1.50;;
1360;SDS011;674;45.552;-122.600;2022-07-21T05:12:48;2.67;;;1.20;;
1360;SDS011;674;45.552;-122.600;2022-07-21T05:15:17;1.90;;;1.30;;
1360;SDS011;674;45.552;-122.600;2022-07-21T05:17:46;3.53;;;1.73;;
1360;SDS011;674;45.552;-122.600;2022-07-21T05:20:14;2.87;;;1.50;;
1360;SDS011;674;45.552;-122.600;2022-07-21T05:22:43;1.90;;;1.30;;
1360;SDS011;674;45.552;-122.600;2022-07-21T05:25:11;2.50;;;1.30;;
1360;SDS011;674;45.552;-122.600;2022-07-21T05:27:39;3.00;;;1.73;;
1360;SDS011;674;45.552;-122.600;2022-07-21T05:30:08;1.90;;;1.60;;
1360;SDS011;674;45.552;-122.600;2022-07-21T05:32:38;2.63;;;1.73;;
1360;SDS011;674;45.552;-122.600;2022-07-21T05:35:13;4.83;;;1.97;;
1360;SDS011;674;45.552;-122.600;2022-07-21T05:37:42;3.07;;;1.60;;
1360;SDS011;674;45.552;-122.600;2022-07-21T05:40:12;5.80;;;1.93;;
1360;SDS011;674;45.552;-122.600;2022-07-21T05:42:42;4.93;;;2.10;;
1360;SDS011;674;45.552;-122.600;2022-07-21T05:45:11;3.03;;;1.97;;
1360;SDS011;674;45.552;-122.600;2022-07-21T05:47:40;4.23;;;1.90;;
1360;SDS011;674;45.552;-122.600;2022-07-21T05:50:10;4.83;;;1.50;;
1360;SDS011;674;45.552;-122.600;2022-07-21T05:52:39;4.43;;;2.30;;
1360;SDS011;674;45.552;-122.600;2022-07-21T05:55:09;2.93;;;1.90;;
1360;SDS011;674;45.552;-122.600;2022-07-21T05:57:38;3.00;;;1.70;;
1360;SDS011;674;45.552;-122.600;2022-07-21T06:00:12;2.47;;;1.53;;
1360;SDS011;674;45.552;-122.600;2022-07-21T06:02:43;3.70;;;2.20;;
1360;SDS011;674;45.552;-122.600;2022-07-21T06:05:12;3.40;;;1.60;;
1360;SDS011;674;45.552;-122.600;2022-07-21T06:07:41;4.23;;;1.80;;
1360;SDS011;674;45.552;-122.600;2022-07-21T06:10:10;3.90;;;2.40;;
1360;SDS011;674;45.552;-122.600;2022-07-21T06:12:42;4.30;;;2.20;;
1360;SDS011;674;45.552;-122.600;2022-07-21T06:15:11;5.60;;;1.83;;
1360;SDS011;674;45.552;-122.600;2022-07-21T06:17:44;3.70;;;2.00;;
1360;SDS011;674;45.552;-122.600;2022-07-21T06:20:13;5.83;;;1.80;;
1360;SDS011;674;45.552;-122.600;2022-07-21T06:22:42;3.80;;;1.80;;
1360;SDS011;674;45.552;-122.600;2022-07-21T06:25:10;3.47;;;1.80;;
1360;SDS011;674;45.552;-122.600;2022-07-21T06:27:39;3.43;;;1.97;;
1360;SDS011;674;45.552;-122.600;2022-07-21T06:30:08;5.87;;;2.07;;
1360;SDS011;674;45.552;-122.600;2022-07-21T06:32:36;5.90;;;2.13;;
1360;SDS011;674;45.552;-122.600;2022-07-21T06:35:05;3.37;;;2.00;;
1360;SDS011;674;45.552;-122.600;2022-07-21T06:37:34;5.13;;;1.97;;
1360;SDS011;674;45.552;-122.600;2022-07-21T06:40:03;3.50;;;2.23;;
1360;SDS011;674;45.552;-122.600;2022-07-21T06:42:32;3.90;;;2.50;;
1360;SDS011;674;45.552;-122.600;2022-07-21T06:45:00;5.70;;;1.87;;
1360;SDS011;674;45.552;-122.600;2022-07-21T06:47:29;6.60;;;2.60;;
1360;SDS011;674;45.552;-122.600;2022-07-21T06:49:57;5.13;;;2.50;;
1360;SDS011;674;45.552;-122.600;2022-07-21T06:52:32;4.50;;;2.20;;
1360;SDS011;674;45.552;-122.600;2022-07-21T06:55:05;5.40;;;2.80;;
1360;SDS011;674;45.552;-122.600;2022-07-21T06:57:35;3.77;;;2.70;;
1360;SDS011;674;45.552;-122.600;2022-07-21T07:00:04;4.83;;;2.57;;
1360;SDS011;674;45.552;-122.600;2022-07-21T07:02:34;4.87;;;2.50;;
1360;SDS011;674;45.552;-122.600;2022-07-21T07:05:03;6.10;;;2.40;;
1360;SDS011;674;45.552;-122.600;2022-07-21T07:07:33;5.50;;;2.93;;
1360;SDS011;674;45.552;-122.600;2022-07-21T07:10:01;5.50;;;2.70;;
1360;SDS011;674;45.552;-122.600;2022-07-21T07:12:30;5.40;;;3.13;;
1360;SDS011;674;45.552;-122.600;2022-07-21T07:15:19;5.57;;;3.20;;
1360;SDS011;674;45.552;-122.600;2022-07-21T07:17:48;7.37;;;3.63;;
1360;SDS011;674;45.552;-122.600;2022-07-21T07:20:17;11.23;;;3.33;;
1360;SDS011;674;45.552;-122.600;2022-07-21T07:22:45;5.17;;;3.67;;
1360;SDS011;674;45.552;-122.600;2022-07-21T07:25:14;4.30;;;3.00;;
1360;SDS011;674;45.552;-122.600;2022-07-21T07:27:56;7.03;;;3.37;;
1360;SDS011;674;45.552;-122.600;2022-07-21T07:30:25;3.60;;;2.47;;
1360;SDS011;674;45.552;-122.600;2022-07-21T07:32:53;5.00;;;2.83;;
1360;SDS011;674;45.552;-122.600;2022-07-21T07:35:22;5.80;;;3.40;;
1360;SDS011;674;45.552;-122.600;2022-07-21T07:37:50;3.67;;;2.50;;
1360;SDS011;674;45.552;-122.600;2022-07-21T07:40:19;7.07;;;2.60;;
1360;SDS011;674;45.552;-122.600;2022-07-21T07:42:50;4.80;;;2.70;;
1360;SDS011;674;45.552;-122.600;2022-07-21T07:45:19;6.20;;;2.77;;
1360;SDS011;674;45.552;-122.600;2022-07-21T07:47:47;5.17;;;3.20;;
1360;SDS011;674;45.552;-122.600;2022-07-21T07:50:16;4.53;;;3.07;;
1360;SDS011;674;45.552;-122.600;2022-07-21T07:52:45;5.50;;;3.20;;
1360;SDS011;674;45.552;-122.600;2022-07-21T07:55:14;3.87;;;2.53;;
1360;SDS011;674;45.552;-122.600;2022-07-21T07:57:42;4.03;;;3.13;;
1360;SDS011;674;45.552;-122.600;2022-07-21T08:00:15;5.17;;;3.03;;
1360;SDS011;674;45.552;-122.600;2022-07-21T08:03:06;5.23;;;3.00;;
1360;SDS011;674;45.552;-122.600;2022-07-21T08:05:35;8.00;;;3.80;;
1360;SDS011;674;45.552;-122.600;2022-07-21T08:08:03;6.13;;;3.10;;
1360;SDS011;674;45.552;-122.600;2022-07-21T08:10:32;6.90;;;3.23;;
1360;SDS011;674;45.552;-122.600;2022-07-21T08:13:13;6.10;;;2.60;;
1360;SDS011;674;45.552;-122.600;2022-07-21T08:15:43;5.93;;;2.97;;
1360;SDS011;674;45.552;-122.600;2022-07-21T08:18:13;5.13;;;3.37;;
1360;SDS011;674;45.552;-122.600;2022-07-21T08:20:42;11.10;;;3.00;;
1360;SDS011;674;45.552;-122.600;2022-07-21T08:23:12;6.03;;;3.17;;
1360;SDS011;674;45.552;-122.600;2022-07-21T08:25:42;10.17;;;2.90;;
1360;SDS011;674;45.552;-122.600;2022-07-21T08:28:11;6.90;;;3.30;;
1360;SDS011;674;45.552;-122.600;2022-07-21T08:30:40;6.37;;;3.40;;
1360;SDS011;674;45.552;-122.600;2022-07-21T08:33:08;5.47;;;3.20;;
1360;SDS011;674;45.552;-122.600;2022-07-21T08:35:37;8.20;;;3.10;;
1360;SDS011;674;45.552;-122.600;2022-07-21T08:38:07;7.53;;;4.07;;
1360;SDS011;674;45.552;-122.600;2022-07-21T08:40:37;3.73;;;3.10;;
1360;SDS011;674;45.552;-122.600;2022-07-21T08:43:10;7.70;;;4.07;;
1360;SDS011;674;45.552;-122.600;2022-07-21T08:45:41;5.00;;;3.50;;
1360;SDS011;674;45.552;-122.600;2022-07-21T08:48:11;7.60;;;3.60;;
1360;SDS011;674;45.552;-122.600;2022-07-21T08:50:41;4.07;;;2.87;;
1360;SDS011;674;45.552;-122.600;2022-07-21T08:53:09;8.83;;;3.63;;
1360;SDS011;674;45.552;-122.600;2022-07-21T08:55:38;5.30;;;3.20;;
1360;SDS011;674;45.552;-122.600;2022-07-21T08:58:11;6.23;;;3.70;;
1360;SDS011;674;45.552;-122.600;2022-07-21T09:00:41;6.03;;;3.93;;
1360;SDS011;674;45.552;-122.600;2022-07-21T09:05:58;5.40;;;3.73;;
1360;SDS011;674;45.552;-122.600;2022-07-21T09:08:59;6.47;;;3.37;;
1360;SDS011;674;45.552;-122.600;2022-07-21T09:11:28;4.93;;;3.50;;
1360;SDS011;674;45.552;-122.600;2022-07-21T09:14:10;5.13;;;3.80;;
1360;SDS011;674;45.552;-122.600;2022-07-21T09:16:41;4.87;;;3.50;;
1360;SDS011;674;45.552;-122.600;2022-07-21T09:19:16;5.27;;;3.07;;
1360;SDS011;674;45.552;-122.600;2022-07-21T09:21:45;6.07;;;3.50;;
1360;SDS011;674;45.552;-122.600;2022-07-21T09:26:58;5.63;;;4.40;;
1360;SDS011;674;45.552;-122.600;2022-07-21T09:32:39;9.70;;;5.30;;
1360;SDS011;674;45.552;-122.600;2022-07-21T09:35:05;6.40;;;2.83;;
1360;SDS011;674;45.552;-122.600;2022-07-21T09:37:41;4.53;;;3.20;;
1360;SDS011;674;45.552;-122.600;2022-07-21T09:40:11;8.53;;;3.30;;
1360;SDS011;674;45.552;-122.600;2022-07-21T09:42:42;10.80;;;3.83;;
1360;SDS011;674;45.552;-122.600;2022-07-21T09:45:16;6.13;;;3.33;;
1360;SDS011;674;45.552;-122.600;2022-07-21T09:47:46;4.17;;;3.27;;
1360;SDS011;674;45.552;-122.600;2022-07-21T09:50:15;6.10;;;3.17;;
1360;SDS011;674;45.552;-122.600;2022-07-21T09:52:55;6.43;;;3.13;;
1360;SDS011;674;45.552;-122.600;2022-07-21T09:55:27;6.20;;;2.70;;
1360;SDS011;674;45.552;-122.600;2022-07-21T09:57:56;3.83;;;3.40;;
1360;SDS011;674;45.552;-122.600;2022-07-21T10:00:25;4.77;;;3.00;;
1360;SDS011;674;45.552;-122.600;2022-07-21T10:02:54;4.93;;;3.70;;
1360;SDS011;674;45.552;-122.600;2022-07-21T10:05:24;5.50;;;2.97;;
1360;SDS011;674;45.552;-122.600;2022-07-21T10:07:58;3.97;;;3.03;;
1360;SDS011;674;45.552;-122.600;2022-07-21T10:10:33;5.83;;;3.20;;
1360;SDS011;674;45.552;-122.600;2022-07-21T10:13:22;6.10;;;3.20;;
1360;SDS011;674;45.552;-122.600;2022-07-21T10:15:51;4.77;;;3.00;;
1360;SDS011;674;45.552;-122.600;2022-07-21T10:18:22;4.77;;;2.80;;
1360;SDS011;674;45.552;-122.600;2022-07-21T10:20:59;5.03;;;3.20;;
1360;SDS011;674;45.552;-122.600;2022-07-21T10:23:35;3.83;;;2.70;;
1360;SDS011;674;45.552;-122.600;2022-07-21T10:26:09;7.97;;;3.83;;
1360;SDS011;674;45.552;-122.600;2022-07-21T10:28:39;4.93;;;3.50;;
1360;SDS011;674;45.552;-122.600;2022-07-21T10:31:23;6.67;;;3.13;;
1360;SDS011;674;45.552;-122.600;2022-07-21T10:34:00;6.23;;;3.10;;
1360;SDS011;674;45.552;-122.600;2022-07-21T10:41:37;3.63;;;2.90;;
1360;SDS011;674;45.552;-122.600;2022-07-21T10:50:15;5.30;;;2.90;;
1360;SDS011;674;45.552;-122.600;2022-07-21T10:55:19;6.23;;;3.57;;
1360;SDS011;674;45.552;-122.600;2022-07-21T11:00:56;8.43;;;3.20;;
1360;SDS011;674;45.552;-122.600;2022-07-21T11:03:44;4.77;;;3.13;;
1360;SDS011;674;45.552;-122.600;2022-07-21T11:09:05;6.60;;;3.20;;
1360;SDS011;674;45.552;-122.600;2022-07-21T11:14:35;5.90;;;3.83;;
1360;SDS011;674;45.552;-122.600;2022-07-21T11:17:05;5.07;;;3.90;;
1360;SDS011;674;45.552;-122.600;2022-07-21T11:19:46;7.73;;;3.90;;
1360;SDS011;674;45.552;-122.600;2022-07-21T11:24:55;5.07;;;3.60;;
1360;SDS011;674;45.552;-122.600;2022-07-21T11:27:34;7.33;;;4.30;;
1360;SDS011;674;45.552;-122.600;2022-07-21T11:30:07;7.23;;;3.07;;
1360;SDS011;674;45.552;-122.600;2022-07-21T11:32:37;3.53;;;2.73;;
1360;SDS011;674;45.552;-122.600;2022-07-21T11:35:06;4.20;;;3.00;;
1360;SDS011;674;45.552;-122.600;2022-07-21T11:37:39;5.87;;;3.60;;
1360;SDS011;674;45.552;-122.600;2022-07-21T11:40:10;7.03;;;3.23;;
1360;SDS011;674;45.552;-122.600;2022-07-21T11:42:41;7.70;;;4.07;;
1360;SDS011;674;45.552;-122.600;2022-07-21T11:45:12;4.73;;;3.57;;
1360;SDS011;674;45.552;-122.600;2022-07-21T11:47:41;5.70;;;3.30;;
1360;SDS011;674;45.552;-122.600;2022-07-21T11:50:17;6.50;;;3.87;;
1360;SDS011;674;45.552;-122.600;2022-07-21T11:52:45;6.77;;;3.73;;
1360;SDS011;674;45.552;-122.600;2022-07-21T11:55:14;5.83;;;4.10;;
1360;SDS011;674;45.552;-122.600;2022-07-21T11:57:43;6.40;;;4.10;;
1360;SDS011;674;45.552;-122.600;2022-07-21T12:00:14;8.47;;;4.40;;
1360;SDS011;674;45.552;-122.600;2022-07-21T12:02:47;6.93;;;3.40;;
1360;SDS011;674;45.552;-122.600;2022-07-21T12:05:16;6.40;;;3.83;;
1360;SDS011;674;45.552;-122.600;2022-07-21T12:07:46;6.93;;;4.20;;
1360;SDS011;674;45.552;-122.600;2022-07-21T12:13:05;7.10;;;5.00;;
1360;SDS011;674;45.552;-122.600;2022-07-21T12:15:34;5.10;;;3.70;;
1360;SDS011;674;45.552;-122.600;2022-07-21T12:18:05;5.43;;;4.13;;
1360;SDS011;674;45.552;-122.600;2022-07-21T12:20:36;5.97;;;4.20;;
1360;SDS011;674;45.552;-122.600;2022-07-21T12:25:55;13.37;;;5.27;;
1360;SDS011;674;45.552;-122.600;2022-07-21T12:28:47;5.90;;;4.10;;
1360;SDS011;674;45.552;-122.600;2022-07-21T12:31:21;6.40;;;4.30;;
1360;SDS011;674;45.552;-122.600;2022-07-21T12:33:51;6.50;;;4.53;;
1360;SDS011;674;45.552;-122.600;2022-07-21T12:36:43;5.67;;;4.60;;
1360;SDS011;674;45.552;-122.600;2022-07-21T12:39:25;8.50;;;4.47;;
1360;SDS011;674;45.552;-122.600;2022-07-21T12:42:33;6.83;;;4.70;;
1360;SDS011;674;45.552;-122.600;2022-07-21T12:45:23;8.30;;;6.10;;
1360;SDS011;674;45.552;-122.600;2022-07-21T12:50:36;6.10;;;4.60;;
1360;SDS011;674;45.552;-122.600;2022-07-21T12:53:08;7.40;;;5.37;;
1360;SDS011;674;45.552;-122.600;2022-07-21T12:55:38;5.50;;;4.50;;
1360;SDS011;674;45.552;-122.600;2022-07-21T12:58:06;7.70;;;6.00;;
1360;SDS011;674;45.552;-122.600;2022-07-21T13:00:35;10.30;;;5.50;;
1360;SDS011;674;45.552;-122.600;2022-07-21T13:03:03;6.30;;;5.37;;
1360;SDS011;674;45.552;-122.600;2022-07-21T13:05:32;9.13;;;5.60;;
1360;SDS011;674;45.552;-122.600;2022-07-21T13:08:00;9.20;;;6.70;;
1360;SDS011;674;45.552;-122.600;2022-07-21T13:10:29;8.43;;;5.67;;
1360;SDS011;674;45.552;-122.600;2022-07-21T13:12:57;7.40;;;5.20;;
1360;SDS011;674;45.552;-122.600;2022-07-21T13:15:26;8.23;;;5.73;;
1360;SDS011;674;45.552;-122.600;2022-07-21T13:17:54;7.50;;;5.50;;
1360;SDS011;674;45.552;-122.600;2022-07-21T13:20:23;10.13;;;5.87;;
1360;SDS011;674;45.552;-122.600;2022-07-21T13:22:51;6.60;;;4.80;;
1360;SDS011;674;45.552;-122.600;2022-07-21T13:25:20;6.23;;;5.10;;
1360;SDS011;674;45.552;-122.600;2022-07-21T13:27:48;8.30;;;6.20;;
1360;SDS011;674;45.552;-122.600;2022-07-21T13:30:17;11.37;;;6.47;;
1360;SDS011;674;45.552;-122.600;2022-07-21T13:32:45;12.70;;;7.60;;
1360;SDS011;674;45.552;-122.600;2022-07-21T13:35:14;9.27;;;6.83;;
1360;SDS011;674;45.552;-122.600;2022-07-21T13:37:53;10.17;;;7.33;;
1360;SDS011;674;45.552;-122.600;2022-07-21T13:40:22;10.60;;;7.80;;
1360;SDS011;674;45.552;-122.600;2022-07-21T13:43:11;8.17;;;7.43;;
1360;SDS011;674;45.552;-122.600;2022-07-21T13:45:59;9.77;;;8.10;;
1360;SDS011;674;45.552;-122.600;2022-07-21T13:48:28;7.90;;;7.10;;
1360;SDS011;674;45.552;-122.600;2022-07-21T13:50:56;10.70;;;7.43;;
1360;SDS011;674;45.552;-122.600;2022-07-21T13:53:25;12.17;;;8.97;;
1360;SDS011;674;45.552;-122.600;2022-07-21T13:55:53;13.93;;;9.20;;
1360;SDS011;674;45.552;-122.600;2022-07-21T13:58:22;12.07;;;7.67;;
1360;SDS011;674;45.552;-122.600;2022-07-21T14:00:51;9.07;;;7.43;;
1360;SDS011;674;45.552;-122.600;2022-07-21T14:03:20;11.10;;;7.50;;
1360;SDS011;674;45.552;-122.600;2022-07-21T14:05:49;7.93;;;7.00;;
1360;SDS011;674;45.552;-122.600;2022-07-21T14:08:17;9.60;;;7.93;;
1360;SDS011;674;45.552;-122.600;2022-07-21T14:10:46;10.73;;;8.40;;
1360;SDS011;674;45.552;-122.600;2022-07-21T14:13:14;13.60;;;8.77;;
1360;SDS011;674;45.552;-122.600;2022-07-21T14:15:43;8.40;;;6.93;;
1360;SDS011;674;45.552;-122.600;2022-07-21T14:18:11;9.10;;;7.00;;
1360;SDS011;674;45.552;-122.600;2022-07-21T14:20:40;10.40;;;7.30;;
1360;SDS011;674;45.552;-122.600;2022-07-21T14:23:08;12.03;;;7.90;;
1360;SDS011;674;45.552;-122.600;2022-07-21T14:25:37;11.60;;;8.57;;
1360;SDS011;674;45.552;-122.600;2022-07-21T14:28:07;13.10;;;8.40;;
1360;SDS011;674;45.552;-122.600;2022-07-21T14:30:35;9.40;;;7.40;;
1360;SDS011;674;45.552;-122.600;2022-07-21T14:33:04;10.23;;;7.27;;
1360;SDS011;674;45.552;-122.600;2022-07-21T14:35:32;10.57;;;6.57;;
1360;SDS011;674;45.552;-122.600;2022-07-21T14:38:01;9.73;;;8.40;;
1360;SDS011;674;45.552;-122.600;2022-07-21T14:40:30;15.23;;;8.13;;
1360;SDS011;674;45.552;-122.600;2022-07-21T14:42:58;12.57;;;8.23;;
1360;SDS011;674;45.552;-122.600;2022-07-21T14:45:27;10.80;;;7.67;;
1360;SDS011;674;45.552;-122.600;2022-07-21T14:47:56;11.77;;;8.13;;
1360;SDS011;674;45.552;-122.600;2022-07-21T14:50:26;10.53;;;8.30;;
1360;SDS011;674;45.552;-122.600;2022-07-21T14:52:55;11.03;;;8.27;;
1360;SDS011;674;45.552;-122.600;2022-07-21T14:55:25;10.20;;;7.40;;
1360;SDS011;674;45.552;-122.600;2022-07-21T14:57:56;10.53;;;7.97;;
1360;SDS011;674;45.552;-122.600;2022-07-21T15:00:24;10.60;;;7.60;;
1360;SDS011;674;45.552;-122.600;2022-07-21T15:02:53;12.53;;;7.30;;
1360;SDS011;674;45.552;-122.600;2022-07-21T15:05:22;9.27;;;7.60;;
1360;SDS011;674;45.552;-122.600;2022-07-21T15:07:51;8.23;;;6.53;;
1360;SDS011;674;45.552;-122.600;2022-07-21T15:10:19;10.70;;;7.27;;
1360;SDS011;674;45.552;-122.600;2022-07-21T15:12:48;10.60;;;6.73;;
1360;SDS011;674;45.552;-122.600;2022-07-21T15:15:16;13.63;;;7.13;;
1360;SDS011;674;45.552;-122.600;2022-07-21T15:17:44;9.03;;;7.47;;
1360;SDS011;674;45.552;-122.600;2022-07-21T15:20:13;14.20;;;7.37;;
1360;SDS011;674;45.552;-122.600;2022-07-21T15:22:41;8.23;;;6.93;;
1360;SDS011;674;45.552;-122.600;2022-07-21T15:25:10;9.60;;;7.03;;
1360;SDS011;674;45.552;-122.600;2022-07-21T15:27:39;7.50;;;6.13;;
1360;SDS011;674;45.552;-122.600;2022-07-21T15:30:11;8.57;;;5.87;;
1360;SDS011;674;45.552;-122.600;2022-07-21T15:32:41;6.50;;;5.50;;
1360;SDS011;674;45.552;-122.600;2022-07-21T15:35:10;8.23;;;6.10;;
1360;SDS011;674;45.552;-122.600;2022-07-21T15:37:38;9.40;;;6.17;;
1360;SDS011;674;45.552;-122.600;2022-07-21T15:40:07;17.53;;;15.63;;
1360;SDS011;674;45.552;-122.600;2022-07-21T15:42:39;9.03;;;6.40;;
1360;SDS011;674;45.552;-122.600;2022-07-21T15:45:11;6.60;;;4.30;;
1360;SDS011;674;45.552;-122.600;2022-07-21T15:47:40;5.70;;;3.93;;
1360;SDS011;674;45.552;-122.600;2022-07-21T15:50:08;6.67;;;4.50;;